createdAt,value
2018-09-15T00:00:39.195Z,0.00
2018-09-15T00:01:39.155Z,0.00
2018-09-15T00:02:39.124Z,0.00
2018-09-15T00:03:39.089Z,0.00
2018-09-15T00:04:39.047Z,0.00
2018-09-15T00:05:39.010Z,0.00
2018-09-15T00:06:38.980Z,0.00
2018-09-15T00:07:38.947Z,0.00
2018-09-15T00:08:38.903Z,0.00
2018-09-15T00:09:38.867Z,0.00
2018-09-15T00:10:38.832Z,0.00
2018-09-15T00:11:38.796Z,0.00
2018-09-15T00:12:38.766Z,0.00
2018-09-15T00:13:38.727Z,0.00
2018-09-15T00:14:38.690Z,0.00
2018-09-15T00:15:38.657Z,0.00
2018-09-15T00:16:38.651Z,0.00
2018-09-15T00:17:38.585Z,0.00
2018-09-15T00:18:38.547Z,0.00
2018-09-15T00:19:38.512Z,0.00
2018-09-15T00:20:38.482Z,0.00
2018-09-15T00:21:38.442Z,0.00
2018-09-15T00:22:38.408Z,0.00
2018-09-15T00:23:38.371Z,0.00
2018-09-15T00:24:38.339Z,0.00
2018-09-15T00:25:38.302Z,0.00
2018-09-15T00:26:38.266Z,0.00
2018-09-15T00:27:38.228Z,0.00
2018-09-15T00:28:38.190Z,0.00
2018-09-15T00:29:38.154Z,0.00
2018-09-15T00:30:38.122Z,0.00
2018-09-15T00:31:38.100Z,0.00
2018-09-15T00:32:38.056Z,0.00
2018-09-15T00:33:38.013Z,0.00
2018-09-15T00:34:37.979Z,0.00
2018-09-15T00:35:37.945Z,0.00
2018-09-15T00:36:37.905Z,0.00
2018-09-15T00:37:37.871Z,0.00
2018-09-15T00:38:37.837Z,0.00
2018-09-15T00:39:37.800Z,0.00
2018-09-15T00:40:37.756Z,0.00
2018-09-15T00:41:37.744Z,0.00
2018-09-15T00:42:37.688Z,0.00
2018-09-15T00:43:37.660Z,0.00
2018-09-15T00:44:37.619Z,0.00
2018-09-15T00:45:37.583Z,0.00
2018-09-15T00:46:37.550Z,0.00
2018-09-15T00:47:37.513Z,0.00
2018-09-15T00:48:37.469Z,0.00
2018-09-15T00:49:37.438Z,0.00
2018-09-15T00:50:37.401Z,0.00
2018-09-15T00:51:37.366Z,0.00
2018-09-15T00:52:37.333Z,0.00
2018-09-15T00:53:37.297Z,0.00
2018-09-15T00:54:37.262Z,0.00
2018-09-15T00:55:37.223Z,0.00
2018-09-15T00:56:37.189Z,0.00
2018-09-15T00:57:37.155Z,0.00
2018-09-15T00:58:37.118Z,0.00
2018-09-15T00:59:37.088Z,0.00
2018-09-15T01:00:37.045Z,0.00
2018-09-15T01:01:37.005Z,0.00
2018-09-15T01:02:36.975Z,0.00
2018-09-15T01:03:36.939Z,0.00
2018-09-15T01:04:36.904Z,0.00
2018-09-15T01:05:36.867Z,0.00
2018-09-15T01:06:36.836Z,0.00
2018-09-15T01:07:36.798Z,0.00
2018-09-15T01:08:36.759Z,0.00
2018-09-15T01:09:36.721Z,0.00
2018-09-15T01:10:36.689Z,0.00
2018-09-15T01:11:36.654Z,0.00
2018-09-15T01:12:36.613Z,0.00
2018-09-15T01:13:36.579Z,0.00
2018-09-15T01:14:36.544Z,0.00
2018-09-15T01:15:36.505Z,0.00
2018-09-15T01:16:36.473Z,0.00
2018-09-15T01:17:36.440Z,0.00
2018-09-15T01:18:36.403Z,0.00
2018-09-15T01:19:36.368Z,0.00
2018-09-15T01:20:36.325Z,0.00
2018-09-15T01:21:36.295Z,0.00
2018-09-15T01:22:36.256Z,0.00
2018-09-15T01:23:36.218Z,0.00
2018-09-15T01:24:36.188Z,0.00
2018-09-15T01:25:36.155Z,0.00
2018-09-15T01:26:36.118Z,0.00
2018-09-15T01:27:36.075Z,0.00
2018-09-15T01:28:36.046Z,0.00
2018-09-15T01:29:36.007Z,0.00
2018-09-15T01:30:35.970Z,0.00
2018-09-15T01:31:35.938Z,0.00
2018-09-15T01:32:35.897Z,0.00
2018-09-15T01:33:35.859Z,0.00
2018-09-15T01:34:35.826Z,0.00
2018-09-15T01:35:35.787Z,0.00
2018-09-15T01:36:35.753Z,0.00
2018-09-15T01:37:35.724Z,0.00
2018-09-15T01:38:35.684Z,0.00
2018-09-15T01:39:35.646Z,0.00
2018-09-15T01:40:35.608Z,0.00
2018-09-15T01:41:35.570Z,0.00
2018-09-15T01:42:35.537Z,0.00
2018-09-15T01:43:35.504Z,0.00
2018-09-15T01:44:35.467Z,0.00
2018-09-15T01:45:35.425Z,0.00
2018-09-15T01:46:35.391Z,0.00
2018-09-15T01:47:35.359Z,0.00
2018-09-15T01:48:35.326Z,0.00
2018-09-15T01:49:35.290Z,0.00
2018-09-15T01:50:35.256Z,0.00
2018-09-15T01:51:35.218Z,0.00
2018-09-15T01:52:35.179Z,0.00
2018-09-15T01:53:35.139Z,0.00
2018-09-15T01:54:35.105Z,0.00
2018-09-15T01:55:35.076Z,0.00
2018-09-15T01:56:35.038Z,0.00
2018-09-15T01:57:35.114Z,0.00
2018-09-15T01:58:34.959Z,0.00
2018-09-15T01:59:34.925Z,0.00
2018-09-15T02:00:34.891Z,0.00
2018-09-15T02:01:34.858Z,0.00
2018-09-15T02:02:34.822Z,0.00
2018-09-15T02:03:34.783Z,0.00
2018-09-15T02:04:34.742Z,0.00
2018-09-15T02:05:34.705Z,0.00
2018-09-15T02:06:34.671Z,0.00
2018-09-15T02:07:34.637Z,0.00
2018-09-15T02:08:34.603Z,0.00
2018-09-15T02:09:34.568Z,0.00
2018-09-15T02:10:34.532Z,0.00
2018-09-15T02:11:34.491Z,0.00
2018-09-15T02:12:34.457Z,0.00
2018-09-15T02:13:34.424Z,0.00
2018-09-15T02:14:34.389Z,0.00
2018-09-15T02:15:34.349Z,0.00
2018-09-15T02:16:34.307Z,0.00
2018-09-15T02:17:34.271Z,0.00
2018-09-15T02:18:34.235Z,0.00
2018-09-15T02:19:34.199Z,0.00
2018-09-15T02:20:34.164Z,0.00
2018-09-15T02:21:34.141Z,0.00
2018-09-15T02:22:34.113Z,0.00
2018-09-15T02:23:34.057Z,0.00
2018-09-15T02:24:34.018Z,0.00
2018-09-15T02:25:33.983Z,0.00
2018-09-15T02:26:33.945Z,0.00
2018-09-15T02:27:33.918Z,0.00
2018-09-15T02:28:33.874Z,0.00
2018-09-15T02:29:33.840Z,0.00
2018-09-15T02:30:33.799Z,0.00
2018-09-15T02:31:33.767Z,0.00
2018-09-15T02:32:33.732Z,0.00
2018-09-15T02:33:33.718Z,0.00
2018-09-15T02:34:33.663Z,0.00
2018-09-15T02:35:33.624Z,0.00
2018-09-15T02:36:33.582Z,0.00
2018-09-15T02:37:33.563Z,0.00
2018-09-15T02:38:33.510Z,0.00
2018-09-15T02:39:33.474Z,0.00
2018-09-15T02:40:33.440Z,0.00
2018-09-15T02:41:33.402Z,0.00
2018-09-15T02:42:33.372Z,0.00
2018-09-15T02:43:33.329Z,0.00
2018-09-15T02:44:33.291Z,0.00
2018-09-15T02:45:33.250Z,0.00
2018-09-15T02:46:33.221Z,0.00
2018-09-15T02:47:33.182Z,0.00
2018-09-15T02:48:33.144Z,0.00
2018-09-15T02:49:33.102Z,0.00
2018-09-15T02:50:33.067Z,0.00
2018-09-15T02:51:33.058Z,0.00
2018-09-15T02:52:32.999Z,0.00
2018-09-15T02:53:32.963Z,0.00
2018-09-15T02:54:32.967Z,0.00
2018-09-15T02:55:32.888Z,0.00
2018-09-15T02:56:32.858Z,0.00
2018-09-15T02:57:32.817Z,0.00
2018-09-15T02:58:32.775Z,0.00
2018-09-15T02:59:32.742Z,0.00
2018-09-15T03:00:32.704Z,0.00
2018-09-15T03:01:32.680Z,0.00
2018-09-15T03:02:32.626Z,0.00
2018-09-15T03:03:32.594Z,0.00
2018-09-15T03:04:32.566Z,0.00
2018-09-15T03:05:32.524Z,0.00
2018-09-15T03:06:32.490Z,0.00
2018-09-15T03:07:32.453Z,0.00
2018-09-15T03:08:32.410Z,0.00
2018-09-15T03:09:32.369Z,0.00
2018-09-15T03:10:32.338Z,0.00
2018-09-15T03:11:32.300Z,0.00
2018-09-15T03:12:32.262Z,0.00
2018-09-15T03:13:32.228Z,0.00
2018-09-15T03:14:32.191Z,0.00
2018-09-15T03:15:32.157Z,0.00
2018-09-15T03:16:32.112Z,0.00
2018-09-15T03:17:32.076Z,0.00
2018-09-15T03:18:32.049Z,0.00
2018-09-15T03:19:32.005Z,0.00
2018-09-15T03:20:31.968Z,0.00
2018-09-15T03:21:31.927Z,0.00
2018-09-15T03:22:31.892Z,0.00
2018-09-15T03:23:31.859Z,0.00
2018-09-15T03:24:31.822Z,0.00
2018-09-15T03:25:31.786Z,0.00
2018-09-15T03:26:31.756Z,0.00
2018-09-15T03:27:31.710Z,0.00
2018-09-15T03:28:31.672Z,0.00
2018-09-15T03:29:31.674Z,0.00
2018-09-15T03:30:31.596Z,0.00
2018-09-15T03:31:31.561Z,0.00
2018-09-15T03:32:31.532Z,0.00
2018-09-15T03:33:31.493Z,0.00
2018-09-15T03:34:31.447Z,0.00
2018-09-15T03:35:31.411Z,0.00
2018-09-15T03:36:31.379Z,0.00
2018-09-15T03:37:31.341Z,0.00
2018-09-15T03:38:31.305Z,0.00
2018-09-15T03:39:31.265Z,0.00
2018-09-15T03:40:31.226Z,0.00
2018-09-15T03:41:31.236Z,0.00
2018-09-15T03:42:31.154Z,0.00
2018-09-15T03:43:31.118Z,0.00
2018-09-15T03:44:31.082Z,0.00
2018-09-15T03:45:31.047Z,0.00
2018-09-15T03:46:31.018Z,0.00
2018-09-15T03:47:30.978Z,0.00
2018-09-15T03:48:30.932Z,0.00
2018-09-15T03:49:30.893Z,0.00
2018-09-15T03:50:30.862Z,0.00
2018-09-15T03:51:30.827Z,0.00
2018-09-15T03:52:30.788Z,0.00
2018-09-15T03:53:30.746Z,0.00
2018-09-15T04:06:36.336Z,0.00
2018-09-15T04:07:36.238Z,0.00
2018-09-15T04:08:36.200Z,0.00
2018-09-15T04:09:36.160Z,0.00
2018-09-15T04:10:36.127Z,0.00
2018-09-15T04:11:36.081Z,0.00
2018-09-15T04:12:36.041Z,0.00
2018-09-15T04:13:35.999Z,0.00
2018-09-15T04:14:35.959Z,0.00
2018-09-15T04:15:35.921Z,0.00
2018-09-15T04:16:35.881Z,0.00
2018-09-15T04:17:35.845Z,0.00
2018-09-15T04:18:35.813Z,0.00
2018-09-15T04:19:35.761Z,0.00
2018-09-15T04:20:35.726Z,0.00
2018-09-15T04:21:35.689Z,0.00
2018-09-15T04:22:35.655Z,0.00
2018-09-15T04:23:35.615Z,0.00
2018-09-15T04:24:35.578Z,0.00
2018-09-15T04:25:35.537Z,0.00
2018-09-15T04:26:35.497Z,0.00
2018-09-15T04:27:35.459Z,0.00
2018-09-15T04:28:35.456Z,0.00
2018-09-15T04:29:35.386Z,0.00
2018-09-15T04:30:35.355Z,0.00
2018-09-15T04:31:35.320Z,0.00
2018-09-15T04:32:35.276Z,0.00
2018-09-15T04:33:35.239Z,0.00
2018-09-15T04:34:35.195Z,0.00
2018-09-15T04:35:35.164Z,0.00
2018-09-15T04:36:35.125Z,0.00
2018-09-15T04:37:35.086Z,0.00
2018-09-15T04:38:35.044Z,0.00
2018-09-15T04:39:35.005Z,0.00
2018-09-15T04:40:34.970Z,4.00
2018-09-15T04:41:34.988Z,0.00
2018-09-15T04:42:34.900Z,0.00
2018-09-15T04:43:34.863Z,4.00
2018-09-15T04:44:34.822Z,4.00
2018-09-15T04:45:34.782Z,4.00
2018-09-15T04:46:34.749Z,8.00
2018-09-15T04:47:34.710Z,8.00
2018-09-15T04:48:34.669Z,8.00
2018-09-15T04:49:34.633Z,8.00
2018-09-15T04:50:34.604Z,8.00
2018-09-15T04:51:34.555Z,12.00
2018-09-15T04:52:34.524Z,12.00
2018-09-15T04:53:34.484Z,16.00
2018-09-15T04:54:34.481Z,16.00
2018-09-15T04:55:34.410Z,20.00
2018-09-15T04:56:34.371Z,24.00
2018-09-15T04:57:34.337Z,28.00
2018-09-15T04:58:34.298Z,32.00
2018-09-15T04:59:34.258Z,36.00
2018-09-15T05:00:34.222Z,44.00
2018-09-15T05:01:34.179Z,48.00
2018-09-15T05:02:34.146Z,56.00
2018-09-15T05:03:34.105Z,60.00
2018-09-15T05:04:34.068Z,68.00
2018-09-15T05:05:34.036Z,76.00
2018-09-15T05:06:34.006Z,84.00
2018-09-15T05:07:33.958Z,92.00
2018-09-15T05:08:33.918Z,104.00
2018-09-15T05:09:33.887Z,112.00
2018-09-15T05:10:33.852Z,120.00
2018-09-15T05:11:33.811Z,132.00
2018-09-15T05:12:33.799Z,140.00
2018-09-15T05:13:33.736Z,152.00
2018-09-15T05:14:33.697Z,164.00
2018-09-15T05:15:33.657Z,176.00
2018-09-15T05:16:33.618Z,188.00
2018-09-15T05:17:33.591Z,204.00
2018-09-15T05:18:33.550Z,216.00
2018-09-15T05:19:33.510Z,232.00
2018-09-15T05:20:33.475Z,244.00
2018-09-15T05:21:33.443Z,264.00
2018-09-15T05:22:33.397Z,284.00
2018-09-15T05:23:33.371Z,304.00
2018-09-15T05:24:33.323Z,324.00
2018-09-15T05:25:33.285Z,344.00
2018-09-15T05:26:33.253Z,364.00
2018-09-15T05:27:33.208Z,392.00
2018-09-15T05:28:33.169Z,424.00
2018-09-15T05:29:33.138Z,452.00
2018-09-15T05:30:33.099Z,472.00
2018-09-15T05:31:33.079Z,496.00
2018-09-15T05:32:33.030Z,524.00
2018-09-15T05:33:32.986Z,556.00
2018-09-15T05:34:32.951Z,592.00
2018-09-15T05:35:32.911Z,628.00
2018-09-15T05:36:32.871Z,652.00
2018-09-15T05:37:32.842Z,680.00
2018-09-15T05:38:32.802Z,708.00
2018-09-15T05:39:32.762Z,744.00
2018-09-15T05:40:32.725Z,768.00
2018-09-15T05:41:32.693Z,796.00
2018-09-15T05:42:32.655Z,824.00
2018-09-15T05:43:32.615Z,856.00
2018-09-15T05:44:32.579Z,884.00
2018-09-15T05:45:32.536Z,916.00
2018-09-15T05:46:32.505Z,952.00
2018-09-15T05:47:32.467Z,980.00
2018-09-15T05:48:32.428Z,1004.00
2018-09-15T05:49:32.463Z,1024.00
2018-09-15T05:50:32.355Z,1056.00
2018-09-15T05:51:32.317Z,1092.00
2018-09-15T05:52:32.284Z,1116.00
2018-09-15T05:53:32.244Z,1144.00
2018-09-15T05:54:32.203Z,1168.00
2018-09-15T05:55:32.170Z,1192.00
2018-09-15T05:56:32.144Z,1224.00
2018-09-15T05:57:32.091Z,1248.00
2018-09-15T05:58:32.056Z,1284.00
2018-09-15T05:59:32.022Z,1312.00
2018-09-15T06:00:31.993Z,1336.00
2018-09-15T06:01:31.954Z,1364.00
2018-09-15T06:02:31.912Z,1392.00
2018-09-15T06:03:31.873Z,1412.00
2018-09-15T06:04:31.838Z,1436.00
2018-09-15T06:05:31.793Z,1460.00
2018-09-15T06:06:31.763Z,1484.00
2018-09-15T06:07:31.781Z,1508.00
2018-09-15T06:08:31.685Z,1532.00
2018-09-15T06:09:31.655Z,1552.00
2018-09-15T06:10:31.613Z,1580.00
2018-09-15T06:11:31.576Z,1608.00
2018-09-15T06:12:31.540Z,1636.00
2018-09-15T06:13:31.514Z,1660.00
2018-09-15T06:14:31.470Z,1680.00
2018-09-15T06:15:31.431Z,1692.00
2018-09-15T06:16:31.393Z,1712.00
2018-09-15T06:17:31.353Z,1732.00
2018-09-15T06:18:31.321Z,1752.00
2018-09-15T06:19:31.280Z,1788.00
2018-09-15T06:20:31.241Z,1796.00
2018-09-15T06:21:31.214Z,1812.00
2018-09-15T06:22:31.176Z,1828.00
2018-09-15T06:23:31.134Z,1832.00
2018-09-15T06:24:31.100Z,1884.00
2018-09-15T06:25:31.057Z,1908.00
2018-09-15T06:26:31.023Z,1916.00
2018-09-15T06:27:31.023Z,1924.00
2018-09-15T06:28:30.953Z,1936.00
2018-09-15T06:29:30.909Z,1948.00
2018-09-15T06:30:30.880Z,1972.00
2018-09-15T06:31:30.842Z,1988.00
2018-09-15T06:32:30.801Z,2004.00
2018-09-15T06:33:30.772Z,2012.00
2018-09-15T06:34:30.731Z,2028.00
2018-09-15T06:35:30.694Z,2048.00
2018-09-15T06:36:30.659Z,2060.00
2018-09-15T06:37:30.616Z,2092.00
2018-09-15T06:38:30.584Z,2080.00
2018-09-15T06:39:30.576Z,2064.00
2018-09-15T06:40:30.508Z,2108.00
2018-09-15T06:41:30.475Z,2120.00
2018-09-15T06:42:30.438Z,2136.00
2018-09-15T06:43:30.400Z,2164.00
2018-09-15T06:44:30.359Z,2188.00
2018-09-15T06:45:30.375Z,2188.00
2018-09-15T06:46:30.293Z,2220.00
2018-09-15T06:47:30.254Z,2252.00
2018-09-15T06:48:30.262Z,2264.00
2018-09-15T06:49:30.180Z,2288.00
2018-09-15T06:50:30.154Z,2304.00
2018-09-15T06:51:30.151Z,2328.00
2018-09-15T06:52:30.071Z,2336.00
2018-09-15T06:53:30.040Z,2348.00
2018-09-15T06:54:30.003Z,2368.00
2018-09-15T06:55:29.969Z,2368.00
2018-09-15T06:56:29.930Z,2404.00
2018-09-15T06:57:29.889Z,2428.00
2018-09-15T06:58:29.855Z,2444.00
2018-09-15T06:59:29.820Z,2468.00
2018-09-15T07:00:29.787Z,2484.00
2018-09-15T07:01:29.743Z,2496.00
2018-09-15T07:02:29.713Z,2504.00
2018-09-15T07:03:29.673Z,2528.00
2018-09-15T07:04:29.635Z,2564.00
2018-09-15T07:05:29.615Z,2508.00
2018-09-15T07:06:29.569Z,2580.00
2018-09-15T07:07:29.530Z,2604.00
2018-09-15T07:08:29.497Z,2612.00
2018-09-15T07:09:29.455Z,2628.00
2018-09-15T07:10:29.425Z,2636.00
2018-09-15T07:11:29.385Z,2652.00
2018-09-15T07:12:29.349Z,2640.00
2018-09-15T07:13:29.317Z,2700.00
2018-09-15T07:14:29.281Z,2720.00
2018-09-15T07:15:29.244Z,2740.00
2018-09-15T07:16:29.203Z,2756.00
2018-09-15T07:17:29.185Z,2764.00
2018-09-15T07:18:29.163Z,2792.00
2018-09-15T07:19:29.101Z,2796.00
2018-09-15T07:20:29.071Z,2820.00
2018-09-15T07:21:29.030Z,2828.00
2018-09-15T07:22:28.994Z,2840.00
2018-09-15T07:23:28.956Z,2856.00
2018-09-15T07:24:28.921Z,2872.00
2018-09-15T07:25:28.890Z,2900.00
2018-09-15T07:26:28.852Z,2916.00
2018-09-15T07:27:28.840Z,2916.00
2018-09-15T07:28:28.787Z,2944.00
2018-09-15T07:29:28.740Z,2948.00
2018-09-15T07:30:28.705Z,2968.00
2018-09-15T07:31:28.739Z,2972.00
2018-09-15T07:32:28.639Z,2992.00
2018-09-15T07:33:28.598Z,3004.00
2018-09-15T07:34:28.564Z,3008.00
2018-09-15T07:35:28.531Z,3008.00
2018-09-15T07:36:28.492Z,3040.00
2018-09-15T07:37:28.475Z,3044.00
2018-09-15T07:38:28.425Z,3056.00
2018-09-15T07:39:28.392Z,3092.00
2018-09-15T07:40:28.362Z,3096.00
2018-09-15T07:41:28.319Z,3104.00
2018-09-15T07:42:28.281Z,3124.00
2018-09-15T07:43:28.243Z,3132.00
2018-09-15T07:44:28.207Z,3148.00
2018-09-15T07:45:28.180Z,3164.00
2018-09-15T07:46:28.140Z,3180.00
2018-09-15T07:47:28.102Z,3180.00
2018-09-15T07:48:28.067Z,3192.00
2018-09-15T07:49:28.038Z,3212.00
2018-09-15T07:50:27.999Z,3244.00
2018-09-15T07:51:27.998Z,3248.00
2018-09-15T07:52:27.930Z,3272.00
2018-09-15T07:53:27.891Z,3276.00
2018-09-15T07:54:27.860Z,3320.00
2018-09-15T07:55:27.821Z,3376.00
2018-09-15T07:56:27.784Z,3696.00
2018-09-15T07:57:27.828Z,3544.00
2018-09-15T07:58:27.722Z,3672.00
2018-09-15T07:59:27.683Z,3704.00
2018-09-15T08:00:27.648Z,3768.00
2018-09-15T08:01:27.607Z,3780.00
2018-09-15T08:02:27.576Z,3824.00
2018-09-15T08:03:27.544Z,3852.00
2018-09-15T08:04:27.508Z,3840.00
2018-09-15T08:05:27.472Z,3884.00
2018-09-15T08:06:27.436Z,3904.00
2018-09-15T08:07:27.399Z,3996.00
2018-09-15T08:08:27.363Z,4136.00
2018-09-15T08:09:27.338Z,4004.00
2018-09-15T08:10:27.299Z,3412.00
2018-09-15T08:11:27.260Z,2780.00
2018-09-15T08:12:27.230Z,4164.00
2018-09-15T08:13:27.190Z,4192.00
2018-09-15T08:14:27.154Z,2720.00
2018-09-15T08:15:27.130Z,4116.00
2018-09-15T08:16:27.085Z,4212.00
2018-09-15T08:17:27.055Z,4304.00
2018-09-15T08:18:27.020Z,4204.00
2018-09-15T08:19:26.979Z,4148.00
2018-09-15T08:20:26.943Z,2548.00
2018-09-15T08:21:26.919Z,2600.00
2018-09-15T08:22:26.877Z,3912.00
2018-09-15T08:23:26.844Z,4000.00
2018-09-15T08:24:26.811Z,4040.00
2018-09-15T08:25:26.770Z,2572.00
2018-09-15T08:26:26.765Z,4000.00
2018-09-15T08:27:26.721Z,3996.00
2018-09-15T08:28:26.668Z,3728.00
2018-09-15T08:29:26.637Z,3976.00
2018-09-15T08:30:26.600Z,4268.00
2018-09-15T08:31:26.564Z,4176.00
2018-09-15T08:32:26.532Z,4032.00
2018-09-15T08:33:26.501Z,4716.00
2018-09-15T08:34:26.461Z,5104.00
2018-09-15T08:35:26.428Z,4808.00
2018-09-15T08:36:26.393Z,4928.00
2018-09-15T08:37:26.381Z,5056.00
2018-09-15T08:38:26.327Z,4300.00
2018-09-15T08:39:26.285Z,3332.00
2018-09-15T08:40:26.252Z,2984.00
2018-09-15T08:41:26.304Z,4452.00
2018-09-15T08:42:26.185Z,4424.00
2018-09-15T08:43:26.152Z,2880.00
2018-09-15T08:44:26.117Z,3616.00
2018-09-15T08:45:26.079Z,3816.00
2018-09-15T08:46:26.052Z,4796.00
2018-09-15T08:47:26.010Z,4448.00
2018-09-15T08:48:26.034Z,4472.00
2018-09-15T08:49:25.962Z,4516.00
2018-09-15T08:50:25.909Z,2808.00
2018-09-15T08:51:25.872Z,2676.00
2018-09-15T08:52:25.838Z,4472.00
2018-09-15T08:53:25.808Z,4340.00
2018-09-15T08:54:25.772Z,4236.00
2018-09-15T08:55:25.743Z,4276.00
2018-09-15T08:56:25.711Z,4432.00
2018-09-15T08:57:26.456Z,4744.00
2018-09-15T08:58:25.631Z,4508.00
2018-09-15T08:59:25.669Z,4236.00
2018-09-15T09:00:25.562Z,4476.00
2018-09-15T09:01:25.537Z,4444.00
2018-09-15T09:02:25.495Z,4508.00
2018-09-15T09:03:25.464Z,4712.00
2018-09-15T09:04:25.427Z,4676.00
2018-09-15T09:05:25.385Z,4804.00
2018-09-15T09:06:25.359Z,4856.00
2018-09-15T09:07:25.323Z,4868.00
2018-09-15T09:08:25.319Z,5136.00
2018-09-15T09:09:25.252Z,4700.00
2018-09-15T09:10:25.322Z,4664.00
2018-09-15T09:11:25.184Z,4704.00
2018-09-15T09:12:25.148Z,2968.00
2018-09-15T09:13:25.145Z,4968.00
2018-09-15T09:14:25.086Z,2928.00
2018-09-15T09:15:25.055Z,3736.00
2018-09-15T09:16:25.019Z,4672.00
2018-09-15T09:17:24.980Z,4496.00
2018-09-15T09:18:24.945Z,5220.00
2018-09-15T09:19:24.911Z,3764.00
2018-09-15T09:20:24.879Z,5160.00
2018-09-15T09:21:24.845Z,3712.00
2018-09-15T09:22:24.815Z,5944.00
2018-09-15T09:23:24.811Z,5088.00
2018-09-15T09:24:24.745Z,5412.00
2018-09-15T09:25:24.717Z,5396.00
2018-09-15T09:26:24.735Z,3432.00
2018-09-15T09:27:24.648Z,4880.00
2018-09-15T09:28:24.612Z,4180.00
2018-09-15T09:29:24.573Z,3384.00
2018-09-15T09:30:24.543Z,5060.00
2018-09-15T09:31:24.509Z,5676.00
2018-09-15T09:32:24.546Z,5540.00
2018-09-15T09:33:24.463Z,5808.00
2018-09-15T09:34:24.411Z,5672.00
2018-09-15T09:35:24.374Z,5296.00
2018-09-15T09:36:24.344Z,5328.00
2018-09-15T09:37:24.336Z,5364.00
2018-09-15T09:38:24.373Z,5260.00
2018-09-15T09:39:24.245Z,4396.00
2018-09-15T09:40:24.207Z,5564.00
2018-09-15T09:41:24.215Z,5456.00
2018-09-15T09:42:24.138Z,5844.00
2018-09-15T09:43:24.099Z,6132.00
2018-09-15T09:44:24.071Z,5876.00
2018-09-15T09:45:24.073Z,5764.00
2018-09-15T09:46:24.010Z,5188.00
2018-09-15T09:47:23.971Z,5572.00
2018-09-15T09:48:23.937Z,5348.00
2018-09-15T09:49:23.900Z,3708.00
2018-09-15T09:50:23.867Z,3816.00
2018-09-15T09:51:23.832Z,4344.00
2018-09-15T09:52:23.801Z,4200.00
2018-09-15T09:53:23.776Z,3924.00
2018-09-15T09:54:23.737Z,3748.00
2018-09-15T09:55:23.707Z,4916.00
2018-09-15T09:56:23.666Z,5008.00
2018-09-15T09:57:23.637Z,5588.00
2018-09-15T09:58:23.611Z,5460.00
2018-09-15T09:59:23.576Z,5332.00
2018-09-15T10:00:23.536Z,5516.00
2018-09-15T10:01:23.559Z,5580.00
2018-09-15T10:02:23.464Z,4088.00
2018-09-15T10:03:23.430Z,4912.00
2018-09-15T10:04:23.403Z,5372.00
2018-09-15T10:05:23.369Z,5416.00
2018-09-15T10:06:23.359Z,5304.00
2018-09-15T10:21:12.559Z,5424.00
2018-09-15T10:22:12.568Z,3200.00
2018-09-15T10:23:12.436Z,3096.00
2018-09-15T10:24:12.399Z,2944.00
2018-09-15T10:25:12.366Z,2884.00
2018-09-15T10:26:12.326Z,2860.00
2018-09-15T10:27:12.290Z,2956.00
2018-09-15T10:28:12.248Z,3036.00
2018-09-15T10:29:12.220Z,2936.00
2018-09-15T10:30:12.187Z,2992.00
2018-09-15T10:31:12.149Z,3648.00
2018-09-15T10:32:12.168Z,4840.00
2018-09-15T10:33:12.075Z,5144.00
2018-09-15T10:34:12.041Z,2936.00
2018-09-15T10:35:12.016Z,2936.00
2018-09-15T10:36:11.975Z,3080.00
2018-09-15T10:37:11.946Z,5240.00
2018-09-15T10:38:11.942Z,5332.00
2018-09-15T10:39:11.873Z,5420.00
2018-09-15T10:40:11.840Z,5368.00
2018-09-15T10:41:11.803Z,5272.00
2018-09-15T10:42:11.769Z,5272.00
2018-09-15T10:43:11.733Z,5244.00
2018-09-15T10:44:11.703Z,5116.00
2018-09-15T10:45:11.666Z,5100.00
2018-09-15T10:46:11.635Z,5116.00
2018-09-15T10:47:11.610Z,5112.00
2018-09-15T10:48:11.567Z,5080.00
2018-09-15T10:49:11.534Z,5140.00
2018-09-15T10:50:11.498Z,3088.00
2018-09-15T10:51:11.462Z,5284.00
2018-09-15T10:52:11.455Z,3612.00
2018-09-15T10:53:11.397Z,5396.00
2018-09-15T10:54:11.364Z,3924.00
2018-09-15T10:55:11.330Z,3200.00
2018-09-15T10:56:11.305Z,3416.00
2018-09-15T10:57:11.268Z,5312.00
2018-09-15T10:58:11.233Z,3512.00
2018-09-15T10:59:11.199Z,5548.00
2018-09-15T11:00:11.205Z,5180.00
2018-09-15T11:01:11.143Z,5792.00
2018-09-15T11:02:11.098Z,5608.00
2018-09-15T11:03:11.069Z,3704.00
2018-09-15T11:04:11.032Z,3552.00
2018-09-15T11:05:11.001Z,3416.00
2018-09-15T11:06:10.963Z,3208.00
2018-09-15T11:07:10.933Z,3180.00
2018-09-15T11:08:10.902Z,3048.00
2018-09-15T11:09:10.869Z,2952.00
2018-09-15T11:10:10.837Z,2988.00
2018-09-15T11:11:10.798Z,3056.00
2018-09-15T11:12:10.764Z,3128.00
2018-09-15T11:13:10.778Z,3192.00
2018-09-15T11:14:10.699Z,3264.00
2018-09-15T11:15:10.670Z,3376.00
2018-09-15T11:16:10.637Z,3472.00
2018-09-15T11:17:10.600Z,3536.00
2018-09-15T11:18:10.565Z,3628.00
2018-09-15T11:19:10.537Z,3648.00
2018-09-15T11:20:10.507Z,3604.00
2018-09-15T11:21:10.473Z,3620.00
2018-09-15T11:22:10.437Z,3616.00
2018-09-15T11:23:10.401Z,3612.00
2018-09-15T11:24:10.370Z,3548.00
2018-09-15T11:25:10.333Z,3592.00
2018-09-15T11:26:10.300Z,3568.00
2018-09-15T11:27:10.269Z,3544.00
2018-09-15T11:28:10.238Z,3896.00
2018-09-15T11:29:10.205Z,4712.00
2018-09-15T11:30:10.172Z,4272.00
2018-09-15T11:31:10.135Z,4228.00
2018-09-15T11:32:10.099Z,4960.00
2018-09-15T11:33:10.082Z,3916.00
2018-09-15T11:34:10.082Z,4932.00
2018-09-15T11:35:10.005Z,5372.00
2018-09-15T11:36:09.970Z,5348.00
2018-09-15T11:37:09.935Z,5324.00
2018-09-15T11:38:09.913Z,5196.00
2018-09-15T11:39:09.872Z,4992.00
2018-09-15T11:40:09.842Z,4780.00
2018-09-15T11:41:09.874Z,5036.00
2018-09-15T11:42:09.773Z,4960.00
2018-09-15T11:43:09.741Z,4964.00
2018-09-15T11:44:09.705Z,5208.00
2018-09-15T11:45:09.685Z,5364.00
2018-09-15T11:46:09.640Z,5480.00
2018-09-15T11:47:09.609Z,5512.00
2018-09-15T11:48:09.577Z,5584.00
2018-09-15T11:49:09.538Z,5576.00
2018-09-15T11:50:09.508Z,5688.00
2018-09-15T11:51:09.476Z,5728.00
2018-09-15T11:52:09.446Z,3792.00
2018-09-15T11:53:09.415Z,3804.00
2018-09-15T11:54:09.377Z,3804.00
2018-09-15T11:55:09.345Z,3716.00
2018-09-15T11:56:09.312Z,3704.00
2018-09-15T11:57:09.280Z,5416.00
2018-09-15T11:58:09.247Z,3540.00
2018-09-15T11:59:09.218Z,5152.00
2018-09-15T12:00:09.229Z,5036.00
2018-09-15T12:01:09.151Z,4788.00
2018-09-15T12:02:09.156Z,4916.00
2018-09-15T12:03:09.082Z,4752.00
2018-09-15T12:04:09.048Z,4704.00
2018-09-15T12:05:09.025Z,4832.00
2018-09-15T12:06:08.987Z,4896.00
2018-09-15T12:07:09.008Z,4904.00
2018-09-15T12:08:09.301Z,4744.00
2018-09-15T12:09:08.888Z,3396.00
2018-09-15T12:10:08.854Z,2776.00
2018-09-15T12:11:08.826Z,2664.00
2018-09-15T12:12:08.795Z,2676.00
2018-09-15T12:13:08.755Z,2696.00
2018-09-15T12:14:08.776Z,2716.00
2018-09-15T12:15:08.694Z,2892.00
2018-09-15T12:16:08.665Z,2876.00
2018-09-15T12:17:08.632Z,2948.00
2018-09-15T12:18:08.595Z,3032.00
2018-09-15T12:19:08.560Z,3176.00
2018-09-15T12:20:08.525Z,3408.00
2018-09-15T12:21:08.499Z,4056.00
2018-09-15T12:22:08.508Z,4092.00
2018-09-15T12:23:08.430Z,5732.00
2018-09-15T12:24:08.399Z,5716.00
2018-09-15T12:25:08.365Z,5648.00
2018-09-15T12:26:08.336Z,4732.00
2018-09-15T12:27:08.306Z,3336.00
2018-09-15T12:28:08.274Z,3272.00
2018-09-15T12:29:08.240Z,3180.00
2018-09-15T12:30:08.209Z,3132.00
2018-09-15T12:31:08.174Z,3020.00
2018-09-15T12:32:08.139Z,2896.00
2018-09-15T12:33:08.103Z,2936.00
2018-09-15T12:34:08.081Z,3024.00
2018-09-15T12:35:08.042Z,3172.00
2018-09-15T12:36:08.012Z,3272.00
2018-09-15T12:37:07.971Z,3200.00
2018-09-15T12:38:07.940Z,3104.00
2018-09-15T12:39:07.912Z,3108.00
2018-09-15T12:40:07.884Z,3112.00
2018-09-15T12:41:07.849Z,3072.00
2018-09-15T12:42:07.811Z,2984.00
2018-09-15T12:43:07.779Z,2844.00
2018-09-15T12:44:07.746Z,2764.00
2018-09-15T12:45:07.859Z,2732.00
2018-09-15T12:46:07.680Z,2732.00
2018-09-15T12:47:07.648Z,2776.00
2018-09-15T12:48:07.619Z,2816.00
2018-09-15T12:49:09.149Z,2756.00
2018-09-15T12:50:07.551Z,2704.00
2018-09-15T12:51:07.514Z,2672.00
2018-09-15T12:52:07.536Z,2644.00
2018-09-15T12:53:07.474Z,2652.00
2018-09-15T12:54:07.421Z,2656.00
2018-09-15T12:55:07.408Z,2640.00
2018-09-15T12:56:07.387Z,2692.00
2018-09-15T12:57:07.319Z,2756.00
2018-09-15T12:58:07.286Z,2896.00
2018-09-15T12:59:07.263Z,2784.00